Time;durP1;ratioP1;P1;durP2;ratioP2;P2;SDS_P1;SDS_P2;PMS_P1;PMS_P2;Temp;Humidity;BMP_temperature;BMP_pressure;BME280_temperature;BME280_humidity;BME280_pressure;Samples;Min_cycle;Max_cycle;Signal;HPM_P1;HPM_P2
2021/04/26 00:00:02;;;;;;;11.38;10.35;;;30.60;94.20;;;;;;5093783;28;20201;-54
2021/04/26 00:02:32;;;;;;;11.50;10.65;;;30.60;94.20;;;;;;5087912;28;20689;-53
2021/04/26 00:05:04;;;;;;;11.93;10.93;;;30.70;94.20;;;;;;5093591;28;20196;-52
2021/04/26 00:07:35;;;;;;;12.95;11.80;;;30.70;94.10;;;;;;5093670;28;20196;-54
2021/04/26 00:10:06;;;;;;;13.48;12.18;;;30.80;94.10;;;;;;5093839;28;20204;-54
2021/04/26 00:12:36;;;;;;;13.23;11.93;;;30.80;94.10;;;;;;5093000;28;20284;-55
2021/04/26 00:15:18;;;;;;;12.98;11.82;;;30.90;94.20;;;;;;5094044;28;20200;-54
2021/04/26 00:17:48;;;;;;;13.65;11.98;;;30.90;94.30;;;;;;5092353;28;20258;-50
2021/04/26 00:20:20;;;;;;;14.27;13.00;;;30.90;94.40;;;;;;5093928;28;20193;-56
2021/04/26 00:22:51;;;;;;;14.27;12.98;;;31.00;94.50;;;;;;5093180;28;20280;-53
2021/04/26 00:25:21;;;;;;;13.95;12.65;;;31.00;94.50;;;;;;5094154;28;20208;-51
2021/04/26 00:27:52;;;;;;;13.57;12.38;;;31.10;94.50;;;;;;5093669;28;20197;-50
2021/04/26 00:30:24;;;;;;;13.88;12.60;;;31.10;94.40;;;;;;5090329;28;20712;-53
2021/04/26 00:32:55;;;;;;;13.32;12.13;;;31.20;94.30;;;;;;5094990;28;20212;-49
2021/04/26 00:35:31;;;;;;;13.65;12.43;;;31.30;94.30;;;;;;5094699;28;20647;-49
2021/04/26 00:38:02;;;;;;;14.40;13.10;;;31.30;94.30;;;;;;5095152;28;20217;-56
2021/04/26 00:40:33;;;;;;;15.18;13.77;;;31.40;94.70;;;;;;5094521;28;20261;-53
2021/04/26 00:43:03;;;;;;;15.13;13.75;;;31.40;94.30;;;;;;5093850;28;20229;-52
2021/04/26 00:45:33;;;;;;;15.00;13.77;;;31.50;94.30;;;;;;5087676;28;20928;-51
2021/04/26 00:48:04;;;;;;;17.58;14.95;;;31.60;94.40;;;;;;5094811;28;20232;-51
2021/04/26 00:50:35;;;;;;;15.70;14.07;;;31.60;94.30;;;;;;5092497;28;20207;-50
2021/04/26 00:53:06;;;;;;;16.48;14.77;;;31.70;94.30;;;;;;5094040;28;20197;-52
2021/04/26 00:55:39;;;;;;;14.75;13.43;;;31.70;94.20;;;;;;5093715;28;20197;-50
2021/04/26 00:58:09;;;;;;;15.85;14.35;;;31.80;94.10;;;;;;5093613;28;20572;-49
2021/04/26 01:00:40;;;;;;;14.63;13.32;;;31.90;94.10;;;;;;5092893;28;20216;-54
2021/04/26 01:03:10;;;;;;;15.07;13.68;;;31.90;94.10;;;;;;5087901;28;20299;-48
2021/04/26 01:05:42;;;;;;;14.70;13.35;;;32.00;94.10;;;;;;5092977;28;20196;-52
2021/04/26 01:08:12;;;;;;;15.07;13.77;;;32.10;94.00;;;;;;5029806;28;20702;-50
2021/04/26 01:10:43;;;;;;;15.15;13.80;;;32.20;94.40;;;;;;5029808;28;20207;-52
2021/04/26 01:13:34;;;;;;;14.90;13.50;;;32.30;94.00;;;;;;4970975;28;20268;-52
2021/04/26 01:16:09;;;;;;;15.00;13.63;;;32.40;93.70;;;;;;4970635;28;20216;-50
2021/04/26 01:18:44;;;;;;;14.65;13.23;;;32.50;93.40;;;;;;4970714;28;20255;-52
2021/04/26 01:21:47;;;;;;;14.43;13.13;;;32.50;93.20;;;;;;4968529;28;20617;-53
2021/04/26 01:24:59;;;;;;;13.93;12.73;;;32.60;93.00;;;;;;4969710;28;20603;-53
2021/04/26 01:27:33;;;;;;;12.50;11.32;;;32.70;92.90;;;;;;4970606;28;20208;-49
2021/04/26 01:30:17;;;;;;;11.93;10.82;;;32.70;92.90;;;;;;4970372;28;20209;-54
2021/04/26 01:32:52;;;;;;;11.65;10.75;;;32.80;92.50;;;;;;4970779;28;20219;-50
2021/04/26 01:35:22;;;;;;;11.82;10.82;;;32.90;91.70;;;;;;4970218;28;20768;-49
2021/04/26 01:37:53;;;;;;;10.95;10.05;;;32.90;91.30;;;;;;4969603;28;20653;-51
2021/04/26 01:40:25;;;;;;;10.23;9.45;;;33.00;91.60;;;;;;5027980;28;20264;-49
2021/04/26 01:42:58;;;;;;;10.50;9.65;;;33.00;91.40;;;;;;5028498;28;20207;-50
2021/04/26 01:45:28;;;;;;;11.15;10.35;;;33.10;91.40;;;;;;5048661;28;21022;-49
2021/04/26 01:48:00;;;;;;;9.80;9.00;;;33.20;90.40;;;;;;5049200;28;20305;-52
2021/04/26 01:50:35;;;;;;;10.40;9.52;;;33.20;90.60;;;;;;5049373;28;20209;-50
2021/04/26 01:53:08;;;;;;;12.48;11.38;;;33.30;90.70;;;;;;4989708;28;20355;-50
2021/04/26 01:55:38;;;;;;;11.90;10.90;;;33.30;90.10;;;;;;4951016;29;20503;-48
2021/04/26 01:58:09;;;;;;;13.90;12.73;;;33.40;90.00;;;;;;4949232;29;20238;-52
2021/04/26 02:00:39;;;;;;;11.40;10.40;;;33.40;88.50;;;;;;4951776;29;20241;-50
